• Join FlightAware (Why Join?)
  • Login
  • US Flag 
04:06PM EDT


 

Airport Tracker/Info


-or-


 

Live Flight TrackerFlight Track Log ✈ N717AN ✈ 18-Jun-2013 ✈ EGLL / LHR - KJFK

Flight Track Log - Related Links

Times and Time Zones

All times are in EDT time to prevent confusion due to time zone crossing. See the N717AN flight status page for this flight to view local times or setup timezone preferences in your user account.

Time Position Orientation Groundspeed Altitude Reporting Facility
EDT Latitude Longitude Course Direction KTS MPH feet Rate Location/Type
07:30PM 42.1280 -73.8140 180° South 341 392 28,000  Level FlightAware
07:30PM 42.0502 -73.8155 181° South 347 399 28,000  Level FlightAware ADS-B
07:31PM 41.9983 -73.8166 181° South 348 400 28,000  Level FlightAware ADS-B
07:31PM 41.9813 -73.8191 186° South 344 396 28,000  Level FlightAware ADS-B
07:32PM 41.9464 -73.8364 200° South 333 383 28,000  Level FlightAware ADS-B
07:32PM 41.9177 -73.8704 221° Southwest 326 375 28,000 -360 Level FlightAware ADS-B
07:32PM 41.9080 -73.8912 238° Southwest 321 369 27,800 -1,320 Descending FlightAware ADS-B
07:32PM 41.9000 -73.9201 250° West 323 372 27,400 -1,500 Descending FlightAware ADS-B
07:33PM 41.8970 -73.9457 261° West 327 376 27,100 -1,200 Descending FlightAware ADS-B
07:33PM 41.8924 -74.0326 266° West 318 366 26,300 -1,140 Descending FlightAware ADS-B
07:34PM 41.8894 -74.0928 266° West 314 361 25,700 -1,260 Descending FlightAware ADS-B
07:34PM 41.8856 -74.1252 261° West 304 350 25,300 -1,500 Descending FlightAware ADS-B
07:35PM 41.8625 -74.1758 239° Southwest 306 352 24,500 -1,440 Descending FlightAware ADS-B
07:35PM 41.8094 -74.2061 203° Southwest 320 368 23,600 -1,500 Descending FlightAware ADS-B
07:36PM 41.7960 -74.2055 178° South 328 377 23,300 -1,500 Descending FlightAware ADS-B
07:36PM 41.7739 -74.1992 168° South 338 389 23,000 -1,260 Descending FlightAware ADS-B
07:36PM 41.7224 -74.1807 165° South 338 389 22,300 -1,140 Descending FlightAware ADS-B
07:37PM 41.6746 -74.1631 165° South 334 384 21,800 -1,020 Descending FlightAware ADS-B
07:37PM 41.6219 -74.1447 165° South 335 386 21,200 -960 Descending FlightAware ADS-B
07:38PM 41.5768 -74.1291 165° South 333 383 20,800 -720 Descending FlightAware ADS-B
07:39PM 41.5309 -74.1135 166° South 330 380 20,500 -720 Descending FlightAware ADS-B
07:39PM 41.4867 -74.0984 166° South 327 376 20,100 -540 Descending FlightAware ADS-B
07:40PM 41.4410 -74.0826 165° South 324 373 20,000 -120 Descending FlightAware ADS-B
07:40PM 41.4010 -74.0691 166° South 322 371 20,000  Level FlightAware ADS-B
07:40PM 41.3808 -74.0662 174° South 320 368 20,000  Level FlightAware ADS-B
07:40PM 41.3676 -74.0665 181° South 318 366 20,000  Level FlightAware ADS-B
07:41PM 41.3230 -74.0725 186° South 317 365 20,000 -480 Level FlightAware ADS-B
07:41PM 41.2742 -74.0806 187° South 323 372 19,500 -960 Descending FlightAware ADS-B
07:42PM 41.2283 -74.0880 187° South 338 389 19,000 -540 Descending FlightAware ADS-B
07:42PM 41.1781 -74.0955 186° South 365 420 19,000  Level FlightAware ADS-B
07:43PM 41.1257 -74.1033 186° South 374 430 19,000  Level FlightAware ADS-B
07:43PM 41.0768 -74.1104 186° South 379 436 19,000  Level FlightAware ADS-B
07:44PM 41.0494 -74.1094 178° South 375 432 19,000  Level FlightAware ADS-B
07:44PM 41.0273 -74.1030 168° South 365 420 19,000  Level FlightAware ADS-B
07:44PM 41.0248 -74.1019 162° South 365 420 19,000  Level FlightAware ADS-B
07:44PM 40.9984 -74.0898 161° South 349 402 19,000  Level FlightAware ADS-B
07:45PM 40.9546 -74.0687 160° South 347 399 19,000 -420 Level FlightAware ADS-B
07:45PM 40.9100 -74.0480 161° South 333 383 18,600 -1,020 Descending FlightAware ADS-B
07:45PM 40.9085 -74.0474 163° South 333 383 18,500 -1,560 Descending FlightAware ADS-B
07:46PM 40.8644 -74.0278 161° South 332 382 17,800 -1,380 Descending FlightAware ADS-B
07:46PM 40.8638 -74.0276 166° South 332 382 17,800 -900 Level FlightAware ADS-B
07:46PM 40.8346 -74.0146 161° South 325 374 17,500 -1,140 Descending FlightAware ADS-B
07:46PM 40.8325 -74.0135 158° South 325 374 17,400 -1,500 Descending FlightAware ADS-B
07:46PM 40.8243 -74.0085 155° Southeast 327 376 17,300 -960 Descending FlightAware ADS-B
07:46PM 40.8084 -73.9921 142° Southeast 333 383 17,100 -900 Descending FlightAware ADS-B
07:46PM 40.8078 -73.9914 139° Southeast 332 382 17,100 -2,040 Level FlightAware ADS-B
07:47PM 40.8030 -73.9831 127° Southeast 336 387 16,900 -1,740 Descending FlightAware ADS-B
07:47PM 40.8013 -73.9795 122° Southeast 336 387 16,900 -1,500 Level FlightAware ADS-B
07:47PM 40.7963 -73.9672 118° Southeast 341 392 16,700 -1,500 Descending FlightAware ADS-B
07:47PM 40.7781 -73.9088 112° Southeast 343 395 16,000 -1,200 Descending FlightAware ADS-B
07:48PM 40.7601 -73.8517 113° Southeast 333 383 15,500 -1,200 Descending FlightAware ADS-B
07:48PM 40.7380 -73.7841 113° Southeast 328 377 14,700 -1,320 Descending FlightAware ADS-B
07:49PM 40.6945 -73.6802 119° Southeast 320 368 13,400 -1,320 Descending FlightAware ADS-B
07:49PM 40.6843 -73.6728 151° Southeast 310 357 13,200 -1,380 Descending FlightAware ADS-B
07:50PM 40.6712 -73.6667 161° South 308 354 13,000 -1,320 Descending FlightAware ADS-B
07:50PM 40.6574 -73.6613 163° South 303 349 12,800 -780 Descending FlightAware ADS-B
07:50PM 40.6158 -73.6454 164° South 302 348 12,500 -900 Descending FlightAware ADS-B
07:51PM 40.5747 -73.6301 164° South 299 344 11,900 -1,380 Descending FlightAware ADS-B
07:51PM 40.5437 -73.6198 166° South 299 344 11,300 -1,500 Descending FlightAware ADS-B
07:51PM 40.5363 -73.6185 172° South 297 342 11,200 -1,200 Descending FlightAware ADS-B
07:51PM 40.5306 -73.6185 180° South 291 335 11,100 -1,740 Descending FlightAware ADS-B
07:52PM 40.5175 -73.6218 191° South 283 326 10,800 -2,400 Descending FlightAware ADS-B
07:52PM 40.4963 -73.6341 204° Southwest 278 320 10,000 -2,940 Descending FlightAware ADS-B
07:52PM 40.4785 -73.6457 206° Southwest 280 322 9,200 -3,120 Descending FlightAware ADS-B
07:52PM 40.4628 -73.6558 206° Southwest 282 325 8,500 -3,000 Descending FlightAware ADS-B
07:52PM 40.4513 -73.6659 214° Southwest 283 326 8,000 -3,000 Descending FlightAware ADS-B
07:53PM 40.4474 -73.6710 225° Southwest 283 326 7,800 -3,000 Descending FlightAware ADS-B
07:53PM 40.4444 -73.6756 229° Southwest 283 326 7,600 -2,280 Descending FlightAware ADS-B
07:53PM 40.4410 -73.6813 232° Southwest 281 323 7,500 -2,340 Descending FlightAware ADS-B
07:53PM 40.4348 -73.6930 235° Southwest 277 319 7,100 -2,400 Descending FlightAware ADS-B
07:53PM 40.4302 -73.7022 237° Southwest 276 318 6,900 -2,580 Descending FlightAware ADS-B
07:53PM 40.4198 -73.7230 237° Southwest 272 313 6,200 -2,460 Descending FlightAware ADS-B
07:53PM 40.4087 -73.7455 237° Southwest 269 310 5,600 -2,280 Descending FlightAware ADS-B
07:54PM 40.3947 -73.7773 240° Southwest 263 303 4,700 -2,700 Descending FlightAware ADS-B
07:54PM 40.3940 -73.8091 268° West 261 300 3,700 -2,820 Descending FlightAware ADS-B
07:54PM 40.3962 -73.8174 289° West 252 290 3,500 -1,800 Descending FlightAware ADS-B
07:54PM 40.3978 -73.8227 292° West 248 285 3,400 -1,920 Descending FlightAware ADS-B
07:55PM 40.4041 -73.8383 298° West 238 274 3,000 -1,740 Descending FlightAware ADS-B
07:55PM 40.4110 -73.8470 316° Northwest 231 266 2,800 -1,860 Descending FlightAware ADS-B
07:55PM 40.4145 -73.8500 327° Northwest 219 252 2,600 -1,680 Descending FlightAware ADS-B
07:55PM 40.4303 -73.8589 337° Northwest 219 252 2,200 -600 Descending FlightAware ADS-B
07:56PM 40.4620 -73.8560 North 178 205 2,100 -120 Descending FlightAware
07:56PM 40.4870 -73.8520 North 177 204 2,100  Level FlightAware
07:57PM 40.5080 -73.8490 North 179 206 2,100  Level FlightAware
07:57PM 40.5330 -73.8420 12° North 179 206 2,100 -300 Level FlightAware
07:57PM 40.5420 -73.8350 31° Northeast 177 204 1,900 -900 Descending FlightAware
07:58PM 40.5610 -73.8210 29° Northeast 158 182 1,500 -840 Descending FlightAware
07:58PM 40.5750 -73.8100 31° Northeast 146 168 1,200 -780 Descending FlightAware
07:59PM 40.5950 -73.7940 31° Northeast 149 171 800 -780 Descending FlightAware
07:59PM 40.6120 -73.7810 30° Northeast 152 175 400 -780 Descending FlightAware
07:59PM 40.6200 -73.7750 30° Northeast 152 175 300 -540 Descending FlightAware
08:00PM 40.6350 -73.7630 31° Northeast 135 155 -720 Descending FlightAware
08:00PM 40.6430 -73.7560 34° Northeast 31 36  Level FlightAware
08:01PM 40.6460 -73.7560 360° North 31 36  Level FlightAware
08:01PM 40.6470 -73.7570 323° Northwest 15 17  Level FlightAware